ニジネヴァルトフスク の空港の天気 - METARとTAF

Nizhnevartovsk ( USNN / NJC ) - ロシア ニジネヴァルトフスク
飛行場実況気象(Metar)
観測時間05/28 14:00 YEKT (05/28 09:00 UTC)
風向・風速南南西 6m/s
視程10km以上
天気現象
なし
気温23℃
湿度47%
気圧1008hPa
METARUSNN 280900Z 20006MPS CAVOK 23/11 Q1008 R21/0///65 NOSIG RMK QFE751
過去の天気等 Google飛行場航空写真 Wunderground天気予報

過去48時間のMETAR

飛行場予報(TAF)
発表時間: 5/28 12:53 YEKT (5/28 07:53 UTC)
予報対象時間: 28日14時 YEKT ~ 29日14時 YEKT
風向・風速南 5m/s 瞬間風速 12m/s
視程10km以上
全天の4割程度の雲 雲底高度 610m
28日14時 YEKT ~ 28日20時 YEKT に一時的に
少しの雲 雲底高度 300m
全天の8割程度の積乱雲 雲底高度 490m
28日17時 YEKT ~ 28日18時 YEKT に徐々に
風向・風速南西 3m/s 瞬間風速 8m/s
TAF USNN 280753Z 2809/2909 18005G12MPS 9999 SCT020
TEMPO 2809/2815 FEW010 BKN016CB
BECMG 2812/2813 22003G08MPS